createdAt,value
2022-08-27T02:30:34.319Z,0
2022-08-27T02:31:34.383Z,0
2022-08-27T02:32:34.291Z,0
2022-08-27T02:33:34.309Z,0
2022-08-27T02:34:34.291Z,0
2022-08-27T02:35:34.282Z,0
2022-08-27T02:36:34.284Z,0
2022-08-27T02:37:34.289Z,0
2022-08-27T02:38:34.286Z,0
2022-08-27T02:39:34.299Z,0
2022-08-27T02:40:34.369Z,0
2022-08-27T02:41:34.290Z,0
2022-08-27T02:42:34.303Z,0
2022-08-27T02:43:34.302Z,0
2022-08-27T02:44:34.285Z,0
2022-08-27T02:45:35.515Z,0
2022-08-27T02:46:34.361Z,0
2022-08-27T02:47:34.294Z,0
2022-08-27T02:48:34.288Z,0
2022-08-27T02:49:34.305Z,0
2022-08-27T02:50:34.286Z,0
2022-08-27T02:51:34.293Z,0
2022-08-27T02:52:34.285Z,0
2022-08-27T02:53:34.292Z,0
2022-08-27T02:54:34.297Z,0
2022-08-27T02:55:34.283Z,0
2022-08-27T02:56:34.277Z,0
2022-08-27T02:57:36.546Z,0
2022-08-27T02:58:34.295Z,0
2022-08-27T02:59:34.282Z,0
2022-08-27T03:00:34.285Z,0
2022-08-27T03:01:34.333Z,0
2022-08-27T03:02:34.411Z,0
2022-08-27T03:03:34.294Z,0
2022-08-27T03:04:34.280Z,0
2022-08-27T03:05:34.284Z,0
2022-08-27T03:06:34.277Z,0
2022-08-27T03:07:34.276Z,0
2022-08-27T03:08:52.022Z,0
2022-08-27T03:09:34.312Z,0
2022-08-27T03:10:34.279Z,0
2022-08-27T03:11:34.286Z,0
2022-08-27T03:12:34.272Z,0
2022-08-27T03:13:34.296Z,0
2022-08-27T03:14:34.286Z,0
2022-08-27T03:15:34.280Z,0
2022-08-27T03:16:34.280Z,0
2022-08-27T03:17:34.275Z,0
2022-08-27T03:18:34.293Z,0
2022-08-27T03:19:34.287Z,0
2022-08-27T03:20:34.280Z,0
2022-08-27T03:21:34.280Z,0
2022-08-27T03:22:34.286Z,0
2022-08-27T03:23:34.295Z,0
2022-08-27T03:24:34.308Z,0
2022-08-27T03:25:34.285Z,0
2022-08-27T03:26:34.293Z,0
2022-08-27T03:27:34.289Z,0
2022-08-27T03:28:34.291Z,0
2022-08-27T03:29:34.285Z,0
2022-08-27T03:30:34.286Z,0
2022-08-27T03:31:34.326Z,0
2022-08-27T03:32:34.285Z,0
2022-08-27T03:33:34.301Z,0
2022-08-27T03:34:34.284Z,0
2022-08-27T03:35:34.283Z,0
2022-08-27T03:36:34.285Z,0
2022-08-27T03:37:34.293Z,0
2022-08-27T03:38:34.312Z,0
2022-08-27T03:39:34.305Z,0
2022-08-27T03:40:34.325Z,1
2022-08-27T03:41:54.009Z,1
2022-08-27T03:42:34.293Z,3
2022-08-27T03:43:34.307Z,3
2022-08-27T03:44:34.290Z,5
2022-08-27T03:45:56.657Z,7
2022-08-27T03:46:34.315Z,9
2022-08-27T03:47:34.289Z,11
2022-08-27T03:48:34.311Z,12
2022-08-27T03:49:34.291Z,16
2022-08-27T03:50:34.297Z,18
2022-08-27T03:51:34.293Z,22
2022-08-27T03:52:34.302Z,25
2022-08-27T03:53:34.313Z,27
2022-08-27T03:54:34.318Z,29
2022-08-27T03:55:34.288Z,33
2022-08-27T03:56:34.299Z,36
2022-08-27T03:57:34.299Z,40
2022-08-27T03:58:34.307Z,47
2022-08-27T03:59:34.303Z,55
2022-08-27T04:00:34.300Z,55
2022-08-27T04:01:34.371Z,70
2022-08-27T04:02:34.375Z,77
2022-08-27T04:03:34.307Z,81
2022-08-27T04:04:34.298Z,90
2022-08-27T04:05:34.300Z,97
2022-08-27T04:06:34.305Z,103
2022-08-27T04:07:34.301Z,103
2022-08-27T04:08:34.306Z,117
2022-08-27T04:09:34.318Z,123
2022-08-27T04:10:34.854Z,123
2022-08-27T04:11:34.302Z,143
2022-08-27T04:12:34.302Z,156
2022-08-27T04:13:34.304Z,171
2022-08-27T04:14:34.304Z,186
2022-08-27T04:15:34.296Z,200
2022-08-27T04:16:34.407Z,213
2022-08-27T04:17:34.300Z,226
2022-08-27T04:18:34.308Z,226
2022-08-27T04:19:34.295Z,246
2022-08-27T04:20:35.471Z,246
2022-08-27T04:21:34.296Z,254
2022-08-27T04:22:34.321Z,276
2022-08-27T04:23:34.319Z,276
2022-08-27T04:24:34.319Z,298
2022-08-27T04:25:34.292Z,315
2022-08-27T04:26:34.287Z,329
2022-08-27T04:27:34.290Z,346
2022-08-27T04:28:38.267Z,359
2022-08-27T04:29:34.298Z,372
2022-08-27T04:30:34.297Z,390
2022-08-27T04:31:34.320Z,449
2022-08-27T04:32:34.398Z,481
2022-08-27T04:33:34.309Z,512
2022-08-27T04:34:34.288Z,547
2022-08-27T04:35:34.286Z,547
2022-08-27T04:36:34.299Z,604
2022-08-27T04:37:34.288Z,632
2022-08-27T04:38:34.308Z,656
2022-08-27T04:39:34.311Z,678
2022-08-27T04:40:34.320Z,678
2022-08-27T04:41:34.304Z,728
2022-08-27T04:42:34.296Z,755
2022-08-27T04:43:34.309Z,787
2022-08-27T04:44:34.305Z,818
2022-08-27T04:45:34.301Z,853
2022-08-27T04:46:34.436Z,882
2022-08-27T04:47:34.291Z,905
2022-08-27T04:48:34.304Z,934
2022-08-27T04:49:34.298Z,967
2022-08-27T04:50:34.287Z,967
2022-08-27T04:51:34.303Z,1030
2022-08-27T04:52:34.295Z,1065
2022-08-27T04:53:34.304Z,1102
2022-08-27T04:54:34.310Z,1144
2022-08-27T04:55:34.318Z,1192
2022-08-27T04:56:34.309Z,1236
2022-08-27T04:57:34.292Z,1284
2022-08-27T04:58:34.313Z,1341
2022-08-27T04:59:34.293Z,1397
2022-08-27T05:00:34.289Z,1397
2022-08-27T05:01:34.364Z,1528
2022-08-27T05:02:34.296Z,1601
2022-08-27T05:03:34.307Z,1679
2022-08-27T05:04:34.300Z,1752
2022-08-27T05:05:34.386Z,1839
2022-08-27T05:06:34.286Z,1909
2022-08-27T05:07:34.302Z,1909
2022-08-27T05:08:34.320Z,2027
2022-08-27T05:09:34.316Z,2110
2022-08-27T05:10:34.319Z,2110
2022-08-27T05:11:34.292Z,2189
2022-08-27T05:12:34.294Z,2241
2022-08-27T05:13:34.298Z,2309
2022-08-27T05:14:34.297Z,2386
2022-08-27T05:15:34.339Z,2458
2022-08-27T05:16:34.292Z,2565
2022-08-27T05:17:34.294Z,2626
2022-08-27T05:18:41.693Z,2600
2022-08-27T05:19:34.295Z,2674
2022-08-27T05:20:34.294Z,2674
2022-08-27T05:21:34.302Z,2809
2022-08-27T05:22:34.297Z,2914
2022-08-27T05:23:34.306Z,2960
2022-08-27T05:24:34.314Z,2997
2022-08-27T05:25:34.312Z,3017
2022-08-27T05:26:34.293Z,3133
2022-08-27T05:27:34.291Z,3210
2022-08-27T05:28:34.307Z,3347
2022-08-27T05:29:34.297Z,3341
2022-08-27T05:30:34.298Z,3385
2022-08-27T05:31:34.359Z,3607
2022-08-27T05:32:34.298Z,3756
2022-08-27T05:33:34.312Z,3712
2022-08-27T05:34:34.293Z,3636
2022-08-27T05:35:34.295Z,3677
2022-08-27T05:36:34.291Z,3677
2022-08-27T05:37:34.292Z,3985
2022-08-27T05:38:34.303Z,4137
2022-08-27T05:39:34.309Z,4137
2022-08-27T05:40:34.416Z,4287
2022-08-27T05:41:34.535Z,4233
2022-08-27T05:42:34.298Z,4220
2022-08-27T05:43:34.306Z,4101
2022-08-27T05:44:40.968Z,3773
2022-08-27T05:45:34.284Z,3686
2022-08-27T05:46:34.357Z,3461
2022-08-27T05:47:37.543Z,3205
2022-08-27T05:48:34.294Z,3303
2022-08-27T05:49:34.297Z,3804
2022-08-27T05:50:34.290Z,3804
2022-08-27T05:51:34.314Z,3708
2022-08-27T05:52:34.295Z,3719
2022-08-27T05:53:34.314Z,3649
2022-08-27T05:54:34.311Z,3636
2022-08-27T05:55:34.291Z,3999
2022-08-27T05:56:34.291Z,4261
2022-08-27T05:57:34.297Z,4128
2022-08-27T05:58:34.301Z,4854
2022-08-27T05:59:34.696Z,7892
2022-08-27T06:00:34.294Z,6349
2022-08-27T06:01:34.294Z,8001
2022-08-27T06:02:34.382Z,8102
2022-08-27T06:03:34.297Z,8135
2022-08-27T06:04:34.291Z,8054
2022-08-27T06:05:34.344Z,8310
2022-08-27T06:06:34.293Z,8043
2022-08-27T06:07:34.294Z,8043
2022-08-27T06:08:34.312Z,9273
2022-08-27T06:09:34.308Z,9282
2022-08-27T06:10:34.289Z,9282
2022-08-27T06:11:34.298Z,9588
2022-08-27T06:12:34.300Z,9551
2022-08-27T06:13:34.302Z,9486
2022-08-27T06:14:34.293Z,9684
2022-08-27T06:15:34.331Z,9791
2022-08-27T06:16:34.289Z,9881
2022-08-27T06:17:34.296Z,9715
2022-08-27T06:18:34.309Z,9757
2022-08-27T06:19:34.299Z,9971
2022-08-27T06:20:34.289Z,9971
2022-08-27T06:21:34.292Z,10226
2022-08-27T06:22:34.297Z,10102
2022-08-27T06:23:34.304Z,9936
2022-08-27T06:24:34.305Z,9907
2022-08-27T06:25:34.314Z,9907
2022-08-27T06:26:34.291Z,10384
2022-08-27T06:27:34.300Z,10705
2022-08-27T06:28:34.309Z,11143
2022-08-27T06:29:34.293Z,11175
2022-08-27T06:30:34.300Z,10913
2022-08-27T06:31:34.367Z,11046
2022-08-27T06:32:34.291Z,11077
2022-08-27T06:33:34.309Z,11123
2022-08-27T06:34:34.295Z,11040
2022-08-27T06:35:34.294Z,11156
2022-08-27T06:36:34.288Z,11604
2022-08-27T06:37:34.295Z,11859
2022-08-27T06:38:34.368Z,11669
2022-08-27T06:39:34.313Z,11741
2022-08-27T06:40:34.349Z,11857
2022-08-27T06:41:34.299Z,11956
2022-08-27T06:42:34.786Z,11951
2022-08-27T06:43:34.306Z,12010
2022-08-27T06:44:34.297Z,11907
2022-08-27T06:45:34.288Z,11907
2022-08-27T06:46:34.362Z,11438
2022-08-27T06:47:34.296Z,11394
2022-08-27T06:48:34.301Z,11274
2022-08-27T06:49:34.302Z,12386
2022-08-27T06:50:34.286Z,12386
2022-08-27T06:51:34.298Z,13129
2022-08-27T06:52:34.287Z,13368
2022-08-27T06:53:34.305Z,13545
2022-08-27T06:54:34.308Z,13753
2022-08-27T06:55:37.205Z,13753
2022-08-27T06:56:34.299Z,13800
2022-08-27T06:57:34.305Z,13873
2022-08-27T06:58:34.306Z,13873
2022-08-27T06:59:34.293Z,12589
2022-08-27T07:00:34.290Z,11367
2022-08-27T07:01:34.362Z,8454
2022-08-27T07:02:34.339Z,12082
2022-08-27T07:03:34.301Z,11802
2022-08-27T07:04:34.288Z,10530
2022-08-27T07:05:34.290Z,9617
2022-08-27T07:06:34.288Z,8532
2022-08-27T07:07:36.508Z,8532
2022-08-27T07:08:34.295Z,6668
2022-08-27T07:09:34.326Z,5516
2022-08-27T07:10:34.295Z,5516
2022-08-27T07:11:34.298Z,6559
2022-08-27T07:12:34.289Z,6338
2022-08-27T07:13:34.342Z,5752
2022-08-27T07:14:37.727Z,5817
2022-08-27T07:15:34.407Z,6065
2022-08-27T07:16:34.293Z,6419
2022-08-27T07:17:34.302Z,6757
2022-08-27T07:18:34.310Z,7260
2022-08-27T07:19:34.294Z,7968
2022-08-27T07:20:34.302Z,8408
2022-08-27T07:21:34.299Z,8839
2022-08-27T07:22:34.313Z,8760
2022-08-27T07:23:34.304Z,9888
2022-08-27T07:24:34.313Z,11295
2022-08-27T07:25:34.292Z,10189
2022-08-27T07:26:34.294Z,12213
2022-08-27T07:27:34.290Z,15009
2022-08-27T07:28:34.302Z,11890
2022-08-27T07:29:34.291Z,10395
2022-08-27T07:30:34.379Z,10395
2022-08-27T07:31:34.298Z,9831
2022-08-27T07:32:34.296Z,9966
2022-08-27T07:33:34.306Z,12192
2022-08-27T07:34:34.339Z,13165
2022-08-27T07:35:34.303Z,13177
2022-08-27T07:36:34.296Z,12491
2022-08-27T07:37:35.151Z,9311
2022-08-27T07:38:34.313Z,8910
2022-08-27T07:39:34.307Z,8557
2022-08-27T07:40:34.459Z,8384
2022-08-27T07:41:34.304Z,8301
2022-08-27T07:42:34.297Z,8904
2022-08-27T07:43:34.317Z,9074
2022-08-27T07:44:35.275Z,8639
2022-08-27T07:45:34.298Z,7982
2022-08-27T07:46:37.986Z,7638
2022-08-27T07:47:34.305Z,7332
2022-08-27T07:48:34.304Z,7090
2022-08-27T07:49:34.297Z,6976
2022-08-27T07:50:34.293Z,6810
2022-08-27T07:51:34.294Z,6742
2022-08-27T07:52:34.297Z,6679
2022-08-27T07:53:34.382Z,6701
2022-08-27T07:54:34.315Z,6766
2022-08-27T07:55:34.294Z,6810
2022-08-27T07:56:34.294Z,6757
2022-08-27T07:57:34.297Z,6635
2022-08-27T07:58:34.304Z,6512
2022-08-27T07:59:34.292Z,6469
2022-08-27T08:00:34.289Z,6469
2022-08-27T08:01:34.354Z,6338
2022-08-27T08:02:34.340Z,6147
2022-08-27T08:03:34.310Z,5981
2022-08-27T08:04:34.300Z,5959
2022-08-27T08:05:34.289Z,5990
2022-08-27T08:06:34.296Z,6088
2022-08-27T08:07:34.288Z,6088
2022-08-27T08:08:34.297Z,6504
2022-08-27T08:09:34.558Z,6631
2022-08-27T08:10:35.566Z,6631
2022-08-27T08:11:34.287Z,6672
2022-08-27T08:12:34.291Z,6808
2022-08-27T08:13:34.316Z,6830
2022-08-27T08:14:34.291Z,6598
2022-08-27T08:15:34.299Z,5689
2022-08-27T08:16:34.345Z,5258
2022-08-27T08:17:34.289Z,5022
2022-08-27T08:18:34.320Z,5059
2022-08-27T08:19:34.284Z,5103
2022-08-27T08:20:56.393Z,5103
2022-08-27T08:21:34.290Z,4993
2022-08-27T08:22:34.289Z,4690
2022-08-27T08:23:34.300Z,4384
2022-08-27T08:24:34.305Z,4195
2022-08-27T08:25:35.515Z,4058
2022-08-27T08:26:34.288Z,4101
2022-08-27T08:27:34.293Z,4077
2022-08-27T08:28:34.309Z,4093
2022-08-27T08:29:34.294Z,4130
2022-08-27T08:30:35.362Z,4093
2022-08-27T08:31:34.291Z,3949
2022-08-27T08:32:34.295Z,3922
2022-08-27T08:33:34.304Z,3970
2022-08-27T08:34:34.319Z,4043
2022-08-27T08:35:40.702Z,3964
2022-08-27T08:36:34.292Z,3865
2022-08-27T08:37:34.348Z,3808
2022-08-27T08:38:34.308Z,3795
2022-08-27T08:39:34.302Z,3778
2022-08-27T08:40:34.337Z,3832
2022-08-27T08:41:34.301Z,3891
2022-08-27T08:42:34.303Z,3959
2022-08-27T08:43:34.320Z,3920
2022-08-27T08:44:34.293Z,3839
2022-08-27T08:45:34.298Z,3767
2022-08-27T08:46:34.349Z,3693
2022-08-27T08:47:34.302Z,3653
2022-08-27T08:48:34.326Z,3651
2022-08-27T08:49:34.299Z,3691
2022-08-27T08:50:34.298Z,3693
2022-08-27T08:51:34.297Z,3745
2022-08-27T08:52:34.296Z,3806
2022-08-27T08:53:34.327Z,3839
2022-08-27T08:54:34.306Z,3872
2022-08-27T08:55:34.301Z,3892
2022-08-27T08:56:34.294Z,3817
2022-08-27T08:57:34.312Z,3715
2022-08-27T08:58:34.311Z,3631
2022-08-27T08:59:34.303Z,3702
2022-08-27T09:00:34.346Z,3702
2022-08-27T09:01:34.314Z,4530
2022-08-27T09:02:34.295Z,5243
2022-08-27T09:03:34.354Z,6137
2022-08-27T09:04:34.292Z,6930
2022-08-27T09:05:34.288Z,7864
2022-08-27T09:06:34.298Z,9380
2022-08-27T09:07:34.306Z,9380
2022-08-27T09:08:37.647Z,11958
2022-08-27T09:09:34.314Z,10189
2022-08-27T09:10:34.290Z,9741
2022-08-27T09:11:34.290Z,9551
2022-08-27T09:12:34.294Z,9103
2022-08-27T09:13:34.311Z,8539
2022-08-27T09:14:34.291Z,7761
2022-08-27T09:15:34.294Z,7485
2022-08-27T09:16:34.358Z,7649
2022-08-27T09:17:34.290Z,8209
2022-08-27T09:18:34.295Z,9575
2022-08-27T09:19:34.310Z,11665
2022-08-27T09:20:34.287Z,11665
2022-08-27T09:21:34.303Z,13348
2022-08-27T09:22:34.302Z,13645
2022-08-27T09:23:34.303Z,13645
2022-08-27T09:24:34.314Z,12845
2022-08-27T09:25:34.289Z,12734
2022-08-27T09:26:34.295Z,20802
2022-08-27T09:27:34.289Z,20898
2022-08-27T09:28:34.298Z,20280
2022-08-27T09:29:34.297Z,11899
2022-08-27T09:30:34.323Z,11899
2022-08-27T09:31:34.288Z,11534
2022-08-27T09:32:34.292Z,9759
2022-08-27T09:33:44.416Z,9422
2022-08-27T09:34:34.297Z,7763
2022-08-27T09:35:34.294Z,7109
2022-08-27T09:36:34.321Z,6482
2022-08-27T09:37:34.959Z,6148
2022-08-27T09:38:34.300Z,5863
2022-08-27T09:39:34.319Z,5730
2022-08-27T09:40:34.339Z,5601
2022-08-27T09:41:34.289Z,5407
2022-08-27T09:42:34.290Z,5260
2022-08-27T09:43:34.317Z,5289
2022-08-27T09:44:34.292Z,5627
2022-08-27T09:45:34.323Z,6169
2022-08-27T09:46:34.302Z,6650
2022-08-27T09:47:34.291Z,7114
2022-08-27T09:48:34.305Z,7623
2022-08-27T09:49:34.309Z,8008
2022-08-27T09:50:34.287Z,8218
2022-08-27T09:51:34.298Z,8427
2022-08-27T09:52:37.732Z,8541
2022-08-27T09:53:34.427Z,8559
2022-08-27T09:54:34.325Z,8640
2022-08-27T09:55:34.294Z,8661
2022-08-27T09:56:34.286Z,8712
2022-08-27T09:57:34.301Z,8790
2022-08-27T09:58:34.306Z,9282
2022-08-27T09:59:34.287Z,13022
2022-08-27T10:00:34.300Z,19215
2022-08-27T10:01:34.351Z,13189
2022-08-27T10:02:34.289Z,14168
2022-08-27T10:03:34.418Z,11368
2022-08-27T10:04:34.291Z,19364
2022-08-27T10:05:34.292Z,11284
2022-08-27T10:06:34.290Z,10327
2022-08-27T10:07:34.292Z,10327
2022-08-27T10:08:34.309Z,11239
2022-08-27T10:09:34.319Z,13396
2022-08-27T10:10:34.296Z,9955
2022-08-27T10:11:34.292Z,9192
2022-08-27T10:12:34.286Z,8176
2022-08-27T10:13:34.312Z,7619
2022-08-27T10:14:34.291Z,6904
2022-08-27T10:15:38.744Z,6001
2022-08-27T10:16:34.323Z,5297
2022-08-27T10:17:34.293Z,4818
2022-08-27T10:18:34.304Z,4443
2022-08-27T10:19:34.300Z,4102
2022-08-27T10:20:34.290Z,4102
2022-08-27T10:21:34.293Z,3673
2022-08-27T10:22:34.291Z,3496
2022-08-27T10:23:34.306Z,3303
2022-08-27T10:24:34.312Z,3124
2022-08-27T10:25:34.293Z,3116
2022-08-27T10:26:34.315Z,3188
2022-08-27T10:27:34.287Z,3150
2022-08-27T10:28:34.298Z,3067
2022-08-27T10:29:34.286Z,3155
2022-08-27T10:30:34.315Z,3155
2022-08-27T10:31:34.338Z,4421
2022-08-27T10:32:34.291Z,5743
2022-08-27T10:33:34.305Z,7195
2022-08-27T10:34:34.300Z,8294
2022-08-27T10:35:34.291Z,9767
2022-08-27T10:36:34.302Z,9767
2022-08-27T10:37:36.667Z,11660
2022-08-27T10:38:34.294Z,9767
2022-08-27T10:39:34.319Z,8976
2022-08-27T10:40:34.365Z,7630
2022-08-27T10:41:34.287Z,6436
2022-08-27T10:42:34.283Z,6250
2022-08-27T10:43:34.299Z,5837
2022-08-27T10:44:34.294Z,5597
2022-08-27T10:45:34.289Z,5597
2022-08-27T10:46:34.478Z,6298
2022-08-27T10:47:34.296Z,6759
2022-08-27T10:48:34.304Z,6959
2022-08-27T10:49:34.290Z,7385
2022-08-27T10:50:34.332Z,8757
2022-08-27T10:51:34.284Z,9752
2022-08-27T10:52:34.291Z,9031
2022-08-27T10:53:34.316Z,7746
2022-08-27T10:54:34.304Z,7094
2022-08-27T10:55:34.290Z,6980
2022-08-27T10:56:34.290Z,6729
2022-08-27T10:57:53.932Z,6821
2022-08-27T10:58:34.301Z,7640
2022-08-27T10:59:34.295Z,9474
2022-08-27T11:00:34.353Z,11282
2022-08-27T11:01:34.287Z,10989
2022-08-27T11:02:34.354Z,11295
2022-08-27T11:03:34.319Z,13530
2022-08-27T11:04:34.291Z,20844
2022-08-27T11:05:34.295Z,21023
2022-08-27T11:06:34.308Z,18822
2022-08-27T11:07:34.292Z,18822
2022-08-27T11:08:34.307Z,18293
2022-08-27T11:09:34.331Z,20455
2022-08-27T11:10:34.290Z,20017
2022-08-27T11:12:10.542Z,20892
2022-08-27T11:12:34.290Z,16874
2022-08-27T11:13:34.343Z,12506
2022-08-27T11:14:34.302Z,12450
2022-08-27T11:15:34.288Z,20278
2022-08-27T11:16:34.362Z,20489
2022-08-27T11:17:34.292Z,19989
2022-08-27T11:18:34.302Z,11136
2022-08-27T11:19:34.309Z,10546
2022-08-27T11:20:34.305Z,10546
2022-08-27T11:21:34.297Z,10795
2022-08-27T11:22:34.292Z,11179
2022-08-27T11:23:34.307Z,12008
2022-08-27T11:24:35.175Z,13497
2022-08-27T11:25:34.289Z,16841
2022-08-27T11:26:34.292Z,20444
2022-08-27T11:27:34.308Z,13665
2022-08-27T11:28:34.300Z,13860
2022-08-27T11:29:34.299Z,15272
2022-08-27T11:30:34.297Z,12530
2022-08-27T11:31:34.345Z,11000
2022-08-27T11:32:34.300Z,9536
2022-08-27T11:33:34.305Z,8135
2022-08-27T11:34:34.289Z,6714
2022-08-27T11:35:34.661Z,6714
2022-08-27T11:36:34.286Z,4698
2022-08-27T11:37:34.380Z,4742
2022-08-27T11:38:34.292Z,4696
2022-08-27T11:39:34.313Z,4244
2022-08-27T11:40:34.391Z,4311
2022-08-27T11:41:45.062Z,4075
2022-08-27T11:42:34.291Z,3961
2022-08-27T11:43:34.309Z,4018
2022-08-27T11:44:34.294Z,3752
2022-08-27T11:45:34.292Z,3644
2022-08-27T11:46:34.297Z,3809
2022-08-27T11:47:39.798Z,4141
2022-08-27T11:48:38.718Z,4657
2022-08-27T11:49:38.698Z,5251
2022-08-27T11:50:38.710Z,5896
2022-08-27T11:51:38.706Z,6475
2022-08-27T11:52:38.694Z,6873
2022-08-27T11:53:51.886Z,7164
2022-08-27T11:54:38.715Z,7538
2022-08-27T11:55:38.691Z,7896
2022-08-27T11:56:38.695Z,8327
2022-08-27T11:57:38.700Z,8972
2022-08-27T11:58:52.900Z,11632
2022-08-27T11:59:38.702Z,10613
2022-08-27T12:00:38.692Z,10803
2022-08-27T12:01:38.694Z,10172
2022-08-27T12:02:38.710Z,10205
2022-08-27T12:03:38.808Z,10708
2022-08-27T12:04:38.803Z,10259
2022-08-27T12:05:38.693Z,10132
2022-08-27T12:06:38.685Z,10220
2022-08-27T12:07:38.702Z,10220
2022-08-27T12:08:38.696Z,9750
2022-08-27T12:09:38.699Z,9573
2022-08-27T12:10:38.697Z,9451
2022-08-27T12:11:38.689Z,9472
2022-08-27T12:12:38.697Z,9498
2022-08-27T12:13:38.731Z,9483
2022-08-27T12:14:38.697Z,9612
2022-08-27T12:15:38.697Z,9844
2022-08-27T12:16:38.727Z,10132
2022-08-27T12:17:38.685Z,10452
2022-08-27T12:18:38.696Z,10657
2022-08-27T12:19:38.688Z,10965
2022-08-27T12:20:38.703Z,11588
2022-08-27T12:21:38.693Z,11936
2022-08-27T12:22:39.614Z,13626
2022-08-27T12:23:38.711Z,13149
2022-08-27T12:24:38.699Z,18339
2022-08-27T12:25:38.691Z,13895
2022-08-27T12:26:38.686Z,14870
2022-08-27T12:27:38.688Z,14000
2022-08-27T12:28:38.690Z,17526
2022-08-27T12:29:40.233Z,12021
2022-08-27T12:30:38.671Z,12021
2022-08-27T12:31:38.724Z,15512
2022-08-27T12:32:38.684Z,14176
2022-08-27T12:33:38.706Z,12883
2022-08-27T12:34:38.686Z,13857
2022-08-27T12:35:38.687Z,11143
2022-08-27T12:36:38.690Z,11549
2022-08-27T12:37:38.698Z,7123
2022-08-27T12:38:38.691Z,7158
2022-08-27T12:39:38.712Z,6967
2022-08-27T12:40:38.733Z,7592
2022-08-27T12:41:44.408Z,8169
2022-08-27T12:42:38.709Z,9284
2022-08-27T12:43:38.700Z,8760
2022-08-27T12:44:38.687Z,8760
2022-08-27T12:45:38.687Z,6318
2022-08-27T12:46:39.036Z,6318
2022-08-27T12:47:38.667Z,6053
2022-08-27T12:48:38.685Z,6889
2022-08-27T12:49:39.641Z,7221
2022-08-27T12:50:38.673Z,7221
2022-08-27T12:51:39.010Z,6917
2022-08-27T12:52:38.673Z,6523
2022-08-27T12:53:38.771Z,6053
2022-08-27T12:54:38.693Z,5822
2022-08-27T12:55:38.676Z,5610
2022-08-27T12:56:38.727Z,5387
2022-08-27T12:57:38.667Z,5227
2022-08-27T12:58:38.677Z,5160
2022-08-27T12:59:38.680Z,5017
2022-08-27T13:00:38.887Z,4930
2022-08-27T13:01:43.092Z,4858
2022-08-27T13:03:19.991Z,4801
2022-08-27T13:04:18.838Z,4757
2022-08-27T13:05:40.823Z,4784
2022-08-27T13:07:10.362Z,4906
2022-08-27T13:08:09.513Z,4906
2022-08-27T13:09:09.341Z,5223
2022-08-27T13:10:09.369Z,5411
2022-08-27T13:11:09.371Z,5645
2022-08-27T13:13:02.642Z,5966
2022-08-27T13:14:01.513Z,6143
2022-08-27T13:15:40.910Z,6554
2022-08-27T13:16:40.147Z,6825
2022-08-27T13:18:10.877Z,7020
2022-08-27T13:20:14.014Z,7429
2022-08-27T13:21:11.399Z,7619
2022-08-27T13:22:54.188Z,7977
2022-08-27T13:23:53.181Z,8235
2022-08-27T13:24:53.144Z,8353
2022-08-27T13:26:31.092Z,8694
2022-08-27T13:27:30.003Z,8895
2022-08-27T13:28:29.980Z,9151
2022-08-27T13:29:29.979Z,9367
2022-08-27T13:30:35.512Z,9367
2022-08-27T13:31:30.087Z,10109
2022-08-27T13:32:29.973Z,10215
2022-08-27T13:33:29.973Z,10740
2022-08-27T13:34:29.975Z,10950
2022-08-27T13:35:29.968Z,11311
2022-08-27T13:36:32.028Z,11641
2022-08-27T13:37:29.966Z,12522
2022-08-27T13:38:29.975Z,13119
2022-08-27T13:39:29.976Z,12909
2022-08-27T13:40:30.025Z,12909
2022-08-27T13:41:29.978Z,14415
2022-08-27T13:42:31.611Z,17541
2022-08-27T13:43:30.609Z,18570
2022-08-27T13:44:29.975Z,14935
2022-08-27T13:45:29.973Z,14935
2022-08-27T13:46:30.082Z,14878
2022-08-27T13:47:29.968Z,15269
2022-08-27T13:48:29.967Z,18315
2022-08-27T13:49:29.972Z,21605
2022-08-27T13:50:29.948Z,21605
2022-08-27T13:51:29.967Z,18253
2022-08-27T13:52:29.970Z,11481
2022-08-27T13:53:29.976Z,8922
2022-08-27T13:54:29.973Z,6945
2022-08-27T13:55:29.986Z,5667
2022-08-27T13:56:29.957Z,4945
2022-08-27T13:57:29.981Z,4296
2022-08-27T13:58:29.972Z,3800
2022-08-27T13:59:29.968Z,3583
2022-08-27T14:00:30.221Z,3583
2022-08-27T14:01:30.134Z,3350
2022-08-27T14:02:30.040Z,3271
2022-08-27T14:03:29.966Z,3161
2022-08-27T14:04:29.979Z,2984
2022-08-27T14:05:29.968Z,2709
2022-08-27T14:06:31.982Z,2589
2022-08-27T14:07:29.956Z,2589
2022-08-27T14:08:29.952Z,2412
2022-08-27T14:09:29.972Z,2294
2022-08-27T14:10:29.940Z,2294
2022-08-27T14:11:29.962Z,1933
2022-08-27T14:12:32.527Z,1749
2022-08-27T14:13:29.965Z,1749
2022-08-27T14:14:29.963Z,1590
2022-08-27T14:15:29.977Z,1496
2022-08-27T14:16:30.041Z,1463
2022-08-27T14:17:29.946Z,1450
2022-08-27T14:18:48.436Z,1469
2022-08-27T14:19:36.502Z,1531
2022-08-27T14:20:29.956Z,1638
2022-08-27T14:21:29.942Z,1769
2022-08-27T14:22:29.942Z,1935
2022-08-27T14:23:29.942Z,2165
2022-08-27T14:24:29.970Z,2503
2022-08-27T14:25:30.012Z,2928
2022-08-27T14:26:29.937Z,3225
2022-08-27T14:27:29.967Z,3489
2022-08-27T14:28:29.955Z,3620
2022-08-27T14:29:29.961Z,3765
2022-08-27T14:30:30.343Z,3765
2022-08-27T14:31:29.984Z,4136
2022-08-27T14:32:29.979Z,5503
2022-08-27T14:33:29.993Z,8067
2022-08-27T14:34:29.976Z,4337
2022-08-27T14:35:29.942Z,4337
2022-08-27T14:36:29.959Z,3841
2022-08-27T14:37:29.979Z,3743
2022-08-27T14:38:29.959Z,3561
2022-08-27T14:39:29.974Z,3373
2022-08-27T14:40:30.016Z,3373
2022-08-27T14:41:29.958Z,2941
2022-08-27T14:42:29.969Z,2689
2022-08-27T14:43:29.949Z,2539
2022-08-27T14:44:29.972Z,2449
2022-08-27T14:45:29.950Z,2449
2022-08-27T14:46:30.054Z,2274
2022-08-27T14:47:33.554Z,2069
2022-08-27T14:48:29.960Z,1856
2022-08-27T14:49:29.973Z,1653
2022-08-27T14:50:30.029Z,1653
2022-08-27T14:51:29.957Z,1421
2022-08-27T14:52:29.959Z,1360
2022-08-27T14:53:29.955Z,1314
2022-08-27T14:54:33.559Z,1249
2022-08-27T14:55:29.957Z,1222
2022-08-27T14:56:29.957Z,1233
2022-08-27T14:57:29.969Z,1277
2022-08-27T14:58:29.961Z,1362
2022-08-27T14:59:29.970Z,1498
2022-08-27T15:00:29.966Z,1498
2022-08-27T15:01:30.001Z,1780
2022-08-27T15:02:29.963Z,1909
2022-08-27T15:03:29.957Z,2064
2022-08-27T15:04:30.021Z,2221
2022-08-27T15:05:30.088Z,2256
2022-08-27T15:06:29.950Z,2210
2022-08-27T15:07:29.956Z,2210
2022-08-27T15:08:32.313Z,2020
2022-08-27T15:09:29.963Z,1974
2022-08-27T15:10:29.963Z,1974
2022-08-27T15:11:29.953Z,1970
2022-08-27T15:12:29.970Z,2027
2022-08-27T15:13:29.961Z,2119
2022-08-27T15:14:30.016Z,2237
2022-08-27T15:15:29.957Z,2357
2022-08-27T15:16:30.013Z,2460
2022-08-27T15:17:35.154Z,2621
2022-08-27T15:18:29.963Z,2621
2022-08-27T15:19:29.985Z,3153
2022-08-27T15:20:29.940Z,3153
2022-08-27T15:21:29.945Z,3610
2022-08-27T15:22:29.945Z,4071
2022-08-27T15:23:29.936Z,4324
2022-08-27T15:24:29.955Z,4486
2022-08-27T15:25:29.938Z,4709
2022-08-27T15:26:29.948Z,4877
2022-08-27T15:27:32.011Z,5022
2022-08-27T15:28:29.936Z,5273
2022-08-27T15:29:29.953Z,5935
2022-08-27T15:30:29.936Z,6432
2022-08-27T15:31:30.063Z,6795
2022-08-27T15:32:29.960Z,7606
2022-08-27T15:33:29.982Z,7971
2022-08-27T15:34:29.971Z,7676
2022-08-27T15:35:29.967Z,8200
2022-08-27T15:36:29.955Z,7946
2022-08-27T15:37:29.959Z,6460
2022-08-27T15:38:29.956Z,6130
2022-08-27T15:39:29.975Z,6036
2022-08-27T15:40:30.031Z,6036
2022-08-27T15:41:29.963Z,6666
2022-08-27T15:42:29.962Z,9474
2022-08-27T15:43:29.949Z,8170
2022-08-27T15:44:29.959Z,7498
2022-08-27T15:45:29.963Z,9037
2022-08-27T15:46:30.008Z,9971
2022-08-27T15:47:29.951Z,8902
2022-08-27T15:48:29.957Z,9400
2022-08-27T15:49:29.962Z,9496
2022-08-27T15:50:29.950Z,9496
2022-08-27T15:51:29.966Z,9665
2022-08-27T15:52:36.358Z,7217
2022-08-27T15:53:29.964Z,7074
2022-08-27T15:54:29.976Z,6873
2022-08-27T15:55:29.941Z,6873
2022-08-27T15:56:34.323Z,8368
2022-08-27T15:57:29.967Z,7107
2022-08-27T15:58:29.971Z,6587
2022-08-27T15:59:29.975Z,6528